• Join FlightAware (Why Join?)
  • Login
  • US Flag 
09:31PM EDT


 

Airport Tracker/Info


-or-


 

Live Flight TrackerFlight Track Log ✈ CHQ6101 ✈ 14-Apr-2014 ✈ KLGA - KBGR

Flight Track Log - Related Links

Times and Time Zones

All times are in EDT time to prevent confusion due to time zone crossing. See the CHQ6101 flight status page for this flight to view local times or setup timezone preferences in your user account.

Time Position Orientation Groundspeed Altitude Reporting Facility
EDT Latitude Longitude Course Direction KTS MPH feet Rate Location/Type
01:55PM 40.7333 -73.8167 21° North 184 212 2,200  Level New York TRACON
01:56PM 40.7667 -73.7667 49° Northeast 250 288 4,000 1,920 Climbing New York TRACON
01:57PM 40.8167 -73.8333 315° West 248 285 6,100 1,920 Climbing New York TRACON
01:58PM 41.1657 -73.5551 33° Northeast  Level FlightAware Approximate
01:59PM 41.2627 -73.4701 33° Northeast  Level FlightAware Approximate
02:00PM 41.3664 -73.4002 27° Northeast  Level FlightAware Approximate
02:00PM 41.0036 -73.7133 26° Northeast 321 369 10,600  Level Boston Center
02:01PM 40.8672 -73.7914 21° North  Level FlightAware Approximate
02:01PM 41.0875 -73.6428 32° Northeast 351 404 12,600  Level Boston Center
02:02PM 41.1708 -73.5731 32° Northeast 353 406 14,400 1,680 Climbing Boston Center
02:03PM 41.2633 -73.4956 32° Northeast 361 415 16,100 1,500 Climbing Boston Center
02:04PM 41.3517 -73.4214 32° Northeast 370 426 17,500 1,380 Climbing Boston Center
02:05PM 41.4397 -73.3475 32° Northeast 380 437 19,000 1,440 Climbing Boston Center
02:06PM 41.5364 -73.3067 18° North 378 435 20,500 1,380 Climbing Boston Center
02:07PM 41.6442 -73.3089 359° North 383 441 21,900 1,440 Climbing Boston Center
02:08PM 41.7503 -73.3119 359° North 383 441 23,500 1,440 Climbing Boston Center
02:09PM 41.8550 -73.3142 359° North 380 437 24,900 720 Climbing Boston Center
02:10PM 41.9636 -73.3172 359° North 384 442 25,000  Climbing Boston Center
02:11PM 42.0761 -73.3197 359° North 398 458 25,000  Level Boston Center
02:12PM 42.1867 -73.3233 359° North 399 459 25,000  Level Boston Center
02:13PM 42.2986 -73.3256 359° North 399 459 25,000  Level Boston Center
02:14PM 42.4122 -73.2344 31° Northeast 407 468 25,000  Level Boston Center
02:15PM 42.4844 -73.1108 52° Northeast 411 473 25,000  Level Boston Center
02:16PM 42.5553 -72.9892 52° Northeast 411 473 25,000  Level Boston Center
02:17PM 42.6250 -72.8672 52° Northeast 411 473 25,000  Level Boston Center
02:18PM 42.6939 -72.7483 52° Northeast 403 464 25,000  Level Boston Center
02:19PM 42.7694 -72.6156 52° Northeast 409 471 25,000  Level Boston Center
02:20PM 42.8306 -72.5086 52° Northeast 414 476 25,000  Level Boston Center
02:21PM 42.9150 -72.3622 52° Northeast 411 473 25,000  Level Boston Center
02:22PM 42.9797 -72.2472 52° Northeast 411 473 25,000 -180 Level Boston Center
02:23PM 43.0489 -72.1219 53° Northeast 412 474 24,700 -540 Descending Boston Center
02:24PM 43.1181 -72.0011 52° Northeast 410 472 24,000 -360 Descending Boston Center
02:25PM 43.1889 -71.8778 52° Northeast 408 470 24,000  Level Boston Center
02:26PM 43.2578 -71.7519 53° Northeast 410 472 24,000  Level Boston Center
02:27PM 43.3286 -71.6261 52° Northeast 412 474 24,000 -780 Level Boston Center
02:28PM 43.3983 -71.4983 53° Northeast 417 480 22,500 -2,280 Descending Boston Center
02:29PM 43.4819 -71.3458 53° Northeast 418 481 19,400 -1,740 Descending Boston Center
02:30PM 43.5472 -71.2253 53° Northeast 392 451 19,000 -240 Descending Boston Center
02:31PM 43.6081 -71.1167 52° Northeast 362 417 19,000 -1,020 Level Boston Center
02:32PM 43.6753 -70.9992 52° Northeast 374 430 17,000 -2,340 Descending Boston Center
02:33PM 43.7458 -70.8781 51° Northeast 375 432 14,300 -2,520 Descending Boston Center
02:34PM 43.8103 -70.7639 52° Northeast 376 433 11,900 -1,680 Descending Boston Center
02:35PM 43.8744 -70.6536 51° Northeast 367 422 11,000 -420 Descending Boston Center
02:36PM 43.9336 -70.5439 53° Northeast 354 407 11,100  Climbing Boston Center
02:37PM 43.9922 -70.4319 54° Northeast 356 410 11,100 -60 Level Boston Center
02:39PM 44.0547 -70.3133 54° Northeast 355 409 11,000 -60 Descending Boston Center
02:40PM 44.1119 -70.2031 54° Northeast 351 404 11,000  Level Boston Center
02:41PM 44.1694 -70.0911 54° Northeast 353 406 11,000  Level Boston Center
02:42PM 44.2261 -69.9819 54° Northeast 350 403 11,100  Climbing Boston Center
02:43PM 44.2825 -69.8736 54° Northeast 349 402 11,100  Level Boston Center
02:44PM 44.3500 -69.7636 49° Northeast 347 399 11,100  Level Boston Center
02:45PM 44.4139 -69.6661 47° Northeast 345 397 11,100 -60 Level Boston Center
02:46PM 44.4747 -69.5736 47° Northeast 343 395 11,000 -300 Descending Boston Center
02:47PM 44.5386 -69.4767 47° Northeast 342 394 10,500 -1,080 Descending Boston Center
02:48PM 44.6000 -69.3833 47° Northeast 333 383 8,800 -1,800 Descending Boston Center
02:49PM 44.6600 -69.2922 47° Northeast 324 373 6,900 -1,800 Descending Boston Center
02:50PM 44.7175 -69.2017 48° Northeast 319 367 5,200 -1,680 Descending Boston Center
02:51PM 44.7847 -69.0986 47° Northeast 304 350 3,600 -1,440 Descending Boston Center
02:52PM 44.8344 -69.0183 49° Northeast 284 327 2,300 -960 Descending Boston Center
02:53PM 44.8586 -68.9361 67° East 247 284 1,700 -720 Descending Boston Center
02:54PM 44.8436 -68.8811 111° Southeast 184 212 900 -780 Descending Boston Center
02:55PM 44.8183 -68.8456 135° Southeast 148 170 200 -720 Descending Boston Center